KTCS/TCS METAR and TAF weather

Enter ICAO airport designator
Station Type Date Time Source
KTCS METAR 2021/04/13 19:53 UTC NOAA

KTCS 131953Z AUTO 21016G25KT 24/M03 A2993 RMK AO2 SLP065 T02391028 $


Station Type Date Time Source
KTCS Decoded METAR 2021/04/13 19:53 UTC NOAA

TRUTH OR CONSEQUENCES MUNI, NM, United States (KTCS) 33-14N 107-16W 1469M
Apr 13, 2021 - 03:53 PM EDT / 2021.04.13 1953 UTC
Wind: from the SSW (210 degrees) at 18 MPH (16 KT) gusting to 29 MPH (25 KT):0
Temperature: 75.0 F (23.9 C)
Dew Point: 27.0 F (-2.8 C)
Relative Humidity: 16%
Pressure (altimeter): 29.93 in. Hg (1013 hPa)
ob: KTCS 131953Z AUTO 21016G25KT 24/M03 A2993 RMK AO2 SLP065 T02391028
cycle: 20

Station Type Date Time Source
KTCS TAF 2021/04/13 18:33 UTC NOAA

KTCS 131729Z 1318/1418 14012G18KT P6SM SKC
FM132000 19019G28KT P6SM FEW250
FM140500 22007KT P6SM SCT250

Example: see airport list